sensor_id;sensor_type;location;lat;lon;timestamp;temperature;humidity
418;DHT22;49;48.530;9.200;2023-08-08T00:02:10;21.20;39.10
418;DHT22;49;48.530;9.200;2023-08-08T00:04:41;21.30;38.60
418;DHT22;49;48.530;9.200;2023-08-08T00:07:09;21.40;38.50
418;DHT22;49;48.530;9.200;2023-08-08T00:09:38;21.50;38.60
418;DHT22;49;48.530;9.200;2023-08-08T00:12:16;21.50;38.00
418;DHT22;49;48.530;9.200;2023-08-08T00:14:50;21.50;36.60
418;DHT22;49;48.530;9.200;2023-08-08T00:17:24;21.40;34.60
418;DHT22;49;48.530;9.200;2023-08-08T00:19:56;21.20;35.50
418;DHT22;49;48.530;9.200;2023-08-08T00:22:27;21.20;36.40
418;DHT22;49;48.530;9.200;2023-08-08T00:25:01;21.00;33.80
418;DHT22;49;48.530;9.200;2023-08-08T00:27:41;20.70;31.00
418;DHT22;49;48.530;9.200;2023-08-08T00:30:12;20.50;33.00
418;DHT22;49;48.530;9.200;2023-08-08T00:32:40;20.20;34.50
418;DHT22;49;48.530;9.200;2023-08-08T00:35:11;20.20;37.40
418;DHT22;49;48.530;9.200;2023-08-08T00:37:49;20.10;35.30
418;DHT22;49;48.530;9.200;2023-08-08T00:40:26;20.40;37.60
418;DHT22;49;48.530;9.200;2023-08-08T00:43:00;20.50;36.90
418;DHT22;49;48.530;9.200;2023-08-08T00:45:31;20.60;35.60
418;DHT22;49;48.530;9.200;2023-08-08T00:48:06;20.40;36.10
418;DHT22;49;48.530;9.200;2023-08-08T00:50:43;20.40;34.20
418;DHT22;49;48.530;9.200;2023-08-08T00:53:15;20.40;31.70
418;DHT22;49;48.530;9.200;2023-08-08T00:55:49;20.30;32.90
418;DHT22;49;48.530;9.200;2023-08-08T00:58:24;20.10;35.10
418;DHT22;49;48.530;9.200;2023-08-08T01:01:23;20.10;34.40
418;DHT22;49;48.530;9.200;2023-08-08T01:03:57;20.10;34.50
418;DHT22;49;48.530;9.200;2023-08-08T01:06:41;20.20;36.50
418;DHT22;49;48.530;9.200;2023-08-08T01:09:33;20.50;34.20
418;DHT22;49;48.530;9.200;2023-08-08T01:12:12;19.90;44.40
418;DHT22;49;48.530;9.200;2023-08-08T01:14:45;20.00;36.30
418;DHT22;49;48.530;9.200;2023-08-08T01:17:15;19.90;43.00
418;DHT22;49;48.530;9.200;2023-08-08T01:19:43;20.00;41.80
418;DHT22;49;48.530;9.200;2023-08-08T01:22:20;19.80;41.40
418;DHT22;49;48.530;9.200;2023-08-08T01:24:53;19.40;38.50
418;DHT22;49;48.530;9.200;2023-08-08T01:27:24;19.40;47.90
418;DHT22;49;48.530;9.200;2023-08-08T01:29:55;19.60;42.00
418;DHT22;49;48.530;9.200;2023-08-08T01:32:28;19.80;40.10
418;DHT22;49;48.530;9.200;2023-08-08T01:34:56;19.70;41.30
418;DHT22;49;48.530;9.200;2023-08-08T01:37:29;20.20;47.80
418;DHT22;49;48.530;9.200;2023-08-08T01:40:03;20.50;39.50
418;DHT22;49;48.530;9.200;2023-08-08T01:42:32;20.50;37.90
418;DHT22;49;48.530;9.200;2023-08-08T01:45:05;20.50;37.80
418;DHT22;49;48.530;9.200;2023-08-08T01:47:34;20.70;39.00
418;DHT22;49;48.530;9.200;2023-08-08T01:50:05;20.60;32.40
418;DHT22;49;48.530;9.200;2023-08-08T01:52:33;20.50;33.30
418;DHT22;49;48.530;9.200;2023-08-08T01:55:07;20.00;35.00
418;DHT22;49;48.530;9.200;2023-08-08T01:57:38;19.50;38.20
418;DHT22;49;48.530;9.200;2023-08-08T02:00:09;19.20;38.50
418;DHT22;49;48.530;9.200;2023-08-08T02:02:37;19.30;43.20
418;DHT22;49;48.530;9.200;2023-08-08T02:05:13;19.70;45.20
418;DHT22;49;48.530;9.200;2023-08-08T02:07:43;20.10;44.60
418;DHT22;49;48.530;9.200;2023-08-08T02:10:16;20.50;39.00
418;DHT22;49;48.530;9.200;2023-08-08T02:12:49;20.90;41.70
418;DHT22;49;48.530;9.200;2023-08-08T02:15:24;21.00;37.80
418;DHT22;49;48.530;9.200;2023-08-08T02:17:55;21.00;37.30
418;DHT22;49;48.530;9.200;2023-08-08T02:20:28;21.20;37.80
418;DHT22;49;48.530;9.200;2023-08-08T02:22:58;21.30;37.10
418;DHT22;49;48.530;9.200;2023-08-08T02:25:31;21.40;35.50
418;DHT22;49;48.530;9.200;2023-08-08T02:28:00;21.40;35.10
418;DHT22;49;48.530;9.200;2023-08-08T02:30:33;21.50;33.80
418;DHT22;49;48.530;9.200;2023-08-08T02:33:07;21.30;31.70
418;DHT22;49;48.530;9.200;2023-08-08T02:35:36;20.90;33.20
418;DHT22;49;48.530;9.200;2023-08-08T02:38:05;20.40;33.00
418;DHT22;49;48.530;9.200;2023-08-08T02:40:43;20.30;34.80
418;DHT22;49;48.530;9.200;2023-08-08T02:43:16;20.20;37.40
418;DHT22;49;48.530;9.200;2023-08-08T02:45:47;20.10;36.80
418;DHT22;49;48.530;9.200;2023-08-08T02:48:29;19.80;44.30
418;DHT22;49;48.530;9.200;2023-08-08T02:51:01;19.80;44.80
418;DHT22;49;48.530;9.200;2023-08-08T02:53:36;20.00;39.20
418;DHT22;49;48.530;9.200;2023-08-08T02:56:09;20.30;36.70
418;DHT22;49;48.530;9.200;2023-08-08T02:58:47;20.50;39.60
418;DHT22;49;48.530;9.200;2023-08-08T03:01:21;20.60;37.80
418;DHT22;49;48.530;9.200;2023-08-08T03:03:55;20.60;37.80
418;DHT22;49;48.530;9.200;2023-08-08T03:06:23;20.70;36.50
418;DHT22;49;48.530;9.200;2023-08-08T03:08:55;20.50;34.30
418;DHT22;49;48.530;9.200;2023-08-08T03:11:26;20.20;37.40
418;DHT22;49;48.530;9.200;2023-08-08T03:13:57;20.00;37.20
418;DHT22;49;48.530;9.200;2023-08-08T03:16:29;20.00;37.20
418;DHT22;49;48.530;9.200;2023-08-08T03:19:00;20.00;37.40
418;DHT22;49;48.530;9.200;2023-08-08T03:21:33;20.10;36.90
418;DHT22;49;48.530;9.200;2023-08-08T03:24:07;19.90;38.60
418;DHT22;49;48.530;9.200;2023-08-08T03:26:39;19.80;40.80
418;DHT22;49;48.530;9.200;2023-08-08T03:29:14;19.90;39.10
418;DHT22;49;48.530;9.200;2023-08-08T03:31:47;19.40;40.40
418;DHT22;49;48.530;9.200;2023-08-08T03:34:17;19.50;39.20
418;DHT22;49;48.530;9.200;2023-08-08T03:36:45;19.30;43.80
418;DHT22;49;48.530;9.200;2023-08-08T03:39:17;19.40;49.20
418;DHT22;49;48.530;9.200;2023-08-08T03:41:49;19.70;48.10
418;DHT22;49;48.530;9.200;2023-08-08T03:44:18;19.90;42.10
418;DHT22;49;48.530;9.200;2023-08-08T03:46:47;20.20;37.80
418;DHT22;49;48.530;9.200;2023-08-08T03:49:22;20.10;38.50
418;DHT22;49;48.530;9.200;2023-08-08T03:51:58;19.90;36.70
418;DHT22;49;48.530;9.200;2023-08-08T03:54:31;20.00;37.20
418;DHT22;49;48.530;9.200;2023-08-08T03:57:09;19.60;37.10
418;DHT22;49;48.530;9.200;2023-08-08T03:59:38;19.20;41.10
418;DHT22;49;48.530;9.200;2023-08-08T04:02:08;19.10;41.50
418;DHT22;49;48.530;9.200;2023-08-08T04:04:38;19.30;44.00
418;DHT22;49;48.530;9.200;2023-08-08T04:07:08;19.40;42.40
418;DHT22;49;48.530;9.200;2023-08-08T04:09:45;19.50;42.60
418;DHT22;49;48.530;9.200;2023-08-08T04:12:23;19.30;40.70
418;DHT22;49;48.530;9.200;2023-08-08T04:14:54;19.40;44.30
418;DHT22;49;48.530;9.200;2023-08-08T04:17:26;19.20;43.40
418;DHT22;49;48.530;9.200;2023-08-08T04:20:00;19.40;42.50
418;DHT22;49;48.530;9.200;2023-08-08T04:22:37;19.70;44.80
418;DHT22;49;48.530;9.200;2023-08-08T04:25:15;20.10;40.60
418;DHT22;49;48.530;9.200;2023-08-08T04:28:11;20.30;39.30
418;DHT22;49;48.530;9.200;2023-08-08T04:30:44;20.50;37.70
418;DHT22;49;48.530;9.200;2023-08-08T04:33:19;20.50;37.70
418;DHT22;49;48.530;9.200;2023-08-08T04:36:02;20.10;38.70
418;DHT22;49;48.530;9.200;2023-08-08T04:38:47;20.10;37.30
418;DHT22;49;48.530;9.200;2023-08-08T04:41:26;19.70;41.30
418;DHT22;49;48.530;9.200;2023-08-08T04:44:24;19.80;39.50
418;DHT22;49;48.530;9.200;2023-08-08T04:46:57;19.30;44.50
418;DHT22;49;48.530;9.200;2023-08-08T04:49:27;19.40;44.70
418;DHT22;49;48.530;9.200;2023-08-08T04:52:02;19.20;43.90
418;DHT22;49;48.530;9.200;2023-08-08T04:54:38;18.90;50.70
418;DHT22;49;48.530;9.200;2023-08-08T04:57:08;19.30;44.70
418;DHT22;49;48.530;9.200;2023-08-08T04:59:53;19.30;50.70
418;DHT22;49;48.530;9.200;2023-08-08T05:02:34;19.30;45.20
418;DHT22;49;48.530;9.200;2023-08-08T05:05:16;19.60;42.70
418;DHT22;49;48.530;9.200;2023-08-08T05:07:48;19.60;45.90
418;DHT22;49;48.530;9.200;2023-08-08T05:10:17;20.00;42.10
418;DHT22;49;48.530;9.200;2023-08-08T05:12:46;20.20;40.60
418;DHT22;49;48.530;9.200;2023-08-08T05:15:16;20.30;37.50
418;DHT22;49;48.530;9.200;2023-08-08T05:17:44;20.40;39.80
418;DHT22;49;48.530;9.200;2023-08-08T05:20:12;20.30;36.30
418;DHT22;49;48.530;9.200;2023-08-08T05:22:41;20.10;38.50
418;DHT22;49;48.530;9.200;2023-08-08T05:25:11;19.90;40.10
418;DHT22;49;48.530;9.200;2023-08-08T05:27:39;19.80;39.10
418;DHT22;49;48.530;9.200;2023-08-08T05:30:08;19.70;39.90
418;DHT22;49;48.530;9.200;2023-08-08T05:32:42;19.60;40.10
418;DHT22;49;48.530;9.200;2023-08-08T05:35:16;19.50;42.70
418;DHT22;49;48.530;9.200;2023-08-08T05:37:50;20.10;41.20
418;DHT22;49;48.530;9.200;2023-08-08T05:40:24;20.40;38.00
418;DHT22;49;48.530;9.200;2023-08-08T05:43:19;21.00;37.10
418;DHT22;49;48.530;9.200;2023-08-08T05:45:51;21.90;33.80
418;DHT22;49;48.530;9.200;2023-08-08T05:48:20;23.10;37.30
418;DHT22;49;48.530;9.200;2023-08-08T05:50:47;24.50;27.80
418;DHT22;49;48.530;9.200;2023-08-08T05:53:20;25.50;22.70
418;DHT22;49;48.530;9.200;2023-08-08T05:55:47;26.30;20.80
418;DHT22;49;48.530;9.200;2023-08-08T05:58:15;26.90;20.50
418;DHT22;49;48.530;9.200;2023-08-08T06:00:47;27.70;18.80
418;DHT22;49;48.530;9.200;2023-08-08T06:03:19;28.10;15.00
418;DHT22;49;48.530;9.200;2023-08-08T06:05:49;27.90;13.50
418;DHT22;49;48.530;9.200;2023-08-08T06:08:16;27.30;13.60
418;DHT22;49;48.530;9.200;2023-08-08T06:10:43;26.70;15.00
418;DHT22;49;48.530;9.200;2023-08-08T06:13:11;26.60;15.50
418;DHT22;49;48.530;9.200;2023-08-08T06:15:38;26.50;15.10
418;DHT22;49;48.530;9.200;2023-08-08T06:18:07;26.50;15.40
418;DHT22;49;48.530;9.200;2023-08-08T06:20:34;26.70;17.60
418;DHT22;49;48.530;9.200;2023-08-08T06:23:01;27.50;17.50
418;DHT22;49;48.530;9.200;2023-08-08T06:25:28;28.80;15.80
418;DHT22;49;48.530;9.200;2023-08-08T06:27:54;29.90;13.50
418;DHT22;49;48.530;9.200;2023-08-08T06:30:21;30.90;10.60
418;DHT22;49;48.530;9.200;2023-08-08T06:32:48;31.20;8.60
418;DHT22;49;48.530;9.200;2023-08-08T06:35:17;31.60;9.70
418;DHT22;49;48.530;9.200;2023-08-08T06:37:44;31.60;8.90
418;DHT22;49;48.530;9.200;2023-08-08T06:40:12;32.00;8.90
418;DHT22;49;48.530;9.200;2023-08-08T06:42:39;32.70;6.70
418;DHT22;49;48.530;9.200;2023-08-08T06:45:07;33.10;6.90
418;DHT22;49;48.530;9.200;2023-08-08T06:47:35;33.10;6.70
418;DHT22;49;48.530;9.200;2023-08-08T06:50:03;33.30;4.80
418;DHT22;49;48.530;9.200;2023-08-08T06:52:32;32.60;5.40
418;DHT22;49;48.530;9.200;2023-08-08T06:54:59;32.30;5.50
418;DHT22;49;48.530;9.200;2023-08-08T06:57:26;31.70;7.30
418;DHT22;49;48.530;9.200;2023-08-08T06:59:54;32.00;6.30
418;DHT22;49;48.530;9.200;2023-08-08T07:02:21;32.20;6.50
418;DHT22;49;48.530;9.200;2023-08-08T07:04:47;33.00;6.80
418;DHT22;49;48.530;9.200;2023-08-08T07:07:14;33.20;6.10
418;DHT22;49;48.530;9.200;2023-08-08T07:09:43;33.50;5.10
418;DHT22;49;48.530;9.200;2023-08-08T07:12:10;33.70;4.70
418;DHT22;49;48.530;9.200;2023-08-08T07:14:38;34.00;4.70
418;DHT22;49;48.530;9.200;2023-08-08T07:17:05;34.10;4.40
418;DHT22;49;48.530;9.200;2023-08-08T07:19:32;34.40;3.40
418;DHT22;49;48.530;9.200;2023-08-08T07:21:59;34.30;3.60
418;DHT22;49;48.530;9.200;2023-08-08T07:24:26;34.00;3.20
418;DHT22;49;48.530;9.200;2023-08-08T07:26:56;33.60;3.20
418;DHT22;49;48.530;9.200;2023-08-08T07:29:23;33.20;4.00
418;DHT22;49;48.530;9.200;2023-08-08T07:31:52;32.70;4.80
418;DHT22;49;48.530;9.200;2023-08-08T07:34:19;32.80;4.70
418;DHT22;49;48.530;9.200;2023-08-08T07:36:46;33.20;5.20
418;DHT22;49;48.530;9.200;2023-08-08T07:39:13;34.30;3.20
418;DHT22;49;48.530;9.200;2023-08-08T07:41:40;35.00;1.90
418;DHT22;49;48.530;9.200;2023-08-08T07:44:09;34.90;2.10
418;DHT22;49;48.530;9.200;2023-08-08T07:46:36;34.70;2.00
418;DHT22;49;48.530;9.200;2023-08-08T07:49:03;35.00;1.60
418;DHT22;49;48.530;9.200;2023-08-08T07:51:32;34.90;1.60
418;DHT22;49;48.530;9.200;2023-08-08T07:53:59;35.00;2.70
418;DHT22;49;48.530;9.200;2023-08-08T07:56:27;35.90;1.00
418;DHT22;49;48.530;9.200;2023-08-08T07:58:57;35.70;1.40
418;DHT22;49;48.530;9.200;2023-08-08T08:01:26;36.00;1.00
418;DHT22;49;48.530;9.200;2023-08-08T08:03:53;34.00;2.00
418;DHT22;49;48.530;9.200;2023-08-08T08:06:21;33.70;2.50
418;DHT22;49;48.530;9.200;2023-08-08T08:08:48;33.10;2.80
418;DHT22;49;48.530;9.200;2023-08-08T08:11:15;32.50;4.10
418;DHT22;49;48.530;9.200;2023-08-08T08:13:43;32.10;4.00
418;DHT22;49;48.530;9.200;2023-08-08T08:16:13;32.40;4.40
418;DHT22;49;48.530;9.200;2023-08-08T08:18:42;33.10;2.60
418;DHT22;49;48.530;9.200;2023-08-08T08:21:10;31.50;4.10
418;DHT22;49;48.530;9.200;2023-08-08T08:23:38;29.90;5.20
418;DHT22;49;48.530;9.200;2023-08-08T08:26:06;29.10;6.80
418;DHT22;49;48.530;9.200;2023-08-08T08:28:33;29.70;5.60
418;DHT22;49;48.530;9.200;2023-08-08T08:31:07;29.10;7.50
418;DHT22;49;48.530;9.200;2023-08-08T08:33:34;29.20;7.30
418;DHT22;49;48.530;9.200;2023-08-08T08:36:03;29.40;7.10
418;DHT22;49;48.530;9.200;2023-08-08T08:38:30;29.00;7.70
418;DHT22;49;48.530;9.200;2023-08-08T08:40:57;29.50;6.50
418;DHT22;49;48.530;9.200;2023-08-08T08:43:25;29.30;6.60
418;DHT22;49;48.530;9.200;2023-08-08T08:45:53;28.70;7.70
418;DHT22;49;48.530;9.200;2023-08-08T08:48:21;28.90;7.80
418;DHT22;49;48.530;9.200;2023-08-08T08:50:48;29.00;7.60
418;DHT22;49;48.530;9.200;2023-08-08T08:53:17;28.50;7.70
418;DHT22;49;48.530;9.200;2023-08-08T08:55:45;28.40;8.50
418;DHT22;49;48.530;9.200;2023-08-08T08:58:14;28.20;9.90
418;DHT22;49;48.530;9.200;2023-08-08T09:00:43;28.60;7.90
418;DHT22;49;48.530;9.200;2023-08-08T09:03:11;27.80;10.50
418;DHT22;49;48.530;9.200;2023-08-08T09:05:39;27.70;9.30
418;DHT22;49;48.530;9.200;2023-08-08T09:08:08;27.80;9.10
418;DHT22;49;48.530;9.200;2023-08-08T09:10:36;28.10;9.90
418;DHT22;49;48.530;9.200;2023-08-08T09:13:04;27.90;10.80
418;DHT22;49;48.530;9.200;2023-08-08T09:15:31;27.60;9.50
418;DHT22;49;48.530;9.200;2023-08-08T09:17:59;27.50;10.40
418;DHT22;49;48.530;9.200;2023-08-08T09:20:35;27.70;10.10
418;DHT22;49;48.530;9.200;2023-08-08T09:23:02;27.40;10.30
418;DHT22;49;48.530;9.200;2023-08-08T09:25:29;27.30;10.30
418;DHT22;49;48.530;9.200;2023-08-08T09:27:58;27.40;11.20
418;DHT22;49;48.530;9.200;2023-08-08T09:30:26;27.70;10.10
418;DHT22;49;48.530;9.200;2023-08-08T09:32:53;27.70;9.40
418;DHT22;49;48.530;9.200;2023-08-08T09:35:23;27.60;8.30
418;DHT22;49;48.530;9.200;2023-08-08T09:37:53;26.80;10.00
418;DHT22;49;48.530;9.200;2023-08-08T09:40:20;26.60;10.50
418;DHT22;49;48.530;9.200;2023-08-08T09:42:47;26.50;10.70
418;DHT22;49;48.530;9.200;2023-08-08T09:45:16;26.00;10.80
418;DHT22;49;48.530;9.200;2023-08-08T09:47:43;25.40;12.00
418;DHT22;49;48.530;9.200;2023-08-08T09:50:10;25.50;13.00
418;DHT22;49;48.530;9.200;2023-08-08T09:52:37;25.70;11.60
418;DHT22;49;48.530;9.200;2023-08-08T09:55:05;26.30;11.80
418;DHT22;49;48.530;9.200;2023-08-08T09:57:33;26.30;12.20
418;DHT22;49;48.530;9.200;2023-08-08T10:00:02;26.50;11.00
418;DHT22;49;48.530;9.200;2023-08-08T10:02:31;26.80;10.90
418;DHT22;49;48.530;9.200;2023-08-08T10:04:59;25.60;13.10
418;DHT22;49;48.530;9.200;2023-08-08T10:07:27;25.60;12.80
418;DHT22;49;48.530;9.200;2023-08-08T10:09:54;25.50;11.80
418;DHT22;49;48.530;9.200;2023-08-08T10:12:23;26.20;11.50
418;DHT22;49;48.530;9.200;2023-08-08T10:14:52;26.90;11.70
418;DHT22;49;48.530;9.200;2023-08-08T10:17:20;27.10;10.20
418;DHT22;49;48.530;9.200;2023-08-08T10:19:53;26.50;11.60
418;DHT22;49;48.530;9.200;2023-08-08T10:22:22;26.90;11.60
418;DHT22;49;48.530;9.200;2023-08-08T10:24:51;26.20;11.90
418;DHT22;49;48.530;9.200;2023-08-08T10:27:28;26.10;11.00
418;DHT22;49;48.530;9.200;2023-08-08T10:30:01;25.80;11.30
418;DHT22;49;48.530;9.200;2023-08-08T10:32:29;25.90;10.90
418;DHT22;49;48.530;9.200;2023-08-08T10:35:07;26.60;10.30
418;DHT22;49;48.530;9.200;2023-08-08T10:37:35;27.00;10.10
418;DHT22;49;48.530;9.200;2023-08-08T10:40:04;27.10;11.80
418;DHT22;49;48.530;9.200;2023-08-08T10:42:36;27.00;10.10
418;DHT22;49;48.530;9.200;2023-08-08T10:45:09;26.80;10.30
418;DHT22;49;48.530;9.200;2023-08-08T10:47:37;27.70;8.80
418;DHT22;49;48.530;9.200;2023-08-08T10:50:07;26.50;10.60
418;DHT22;49;48.530;9.200;2023-08-08T10:52:38;25.60;11.20
418;DHT22;49;48.530;9.200;2023-08-08T10:55:06;25.40;11.80
418;DHT22;49;48.530;9.200;2023-08-08T10:57:55;26.10;11.00
418;DHT22;49;48.530;9.200;2023-08-08T11:00:24;26.90;10.30
418;DHT22;49;48.530;9.200;2023-08-08T11:02:53;27.20;10.20
418;DHT22;49;48.530;9.200;2023-08-08T11:05:23;27.60;8.30
418;DHT22;49;48.530;9.200;2023-08-08T11:07:52;27.60;10.00
418;DHT22;49;48.530;9.200;2023-08-08T11:10:20;27.30;7.90
418;DHT22;49;48.530;9.200;2023-08-08T11:12:56;27.70;8.50
418;DHT22;49;48.530;9.200;2023-08-08T11:15:23;28.20;6.40
418;DHT22;49;48.530;9.200;2023-08-08T11:17:51;27.50;9.20
418;DHT22;49;48.530;9.200;2023-08-08T11:20:18;27.00;8.60
418;DHT22;49;48.530;9.200;2023-08-08T11:22:51;26.20;9.70
418;DHT22;49;48.530;9.200;2023-08-08T11:25:18;26.60;9.60
418;DHT22;49;48.530;9.200;2023-08-08T11:27:49;25.70;9.40
418;DHT22;49;48.530;9.200;2023-08-08T11:30:16;25.40;11.60
418;DHT22;49;48.530;9.200;2023-08-08T11:32:44;25.30;11.10
418;DHT22;49;48.530;9.200;2023-08-08T11:35:11;26.20;8.90
418;DHT22;49;48.530;9.200;2023-08-08T11:37:38;26.50;8.50
418;DHT22;49;48.530;9.200;2023-08-08T11:40:08;26.20;6.90
418;DHT22;49;48.530;9.200;2023-08-08T11:42:36;26.40;8.30
418;DHT22;49;48.530;9.200;2023-08-08T11:45:03;26.10;8.40
418;DHT22;49;48.530;9.200;2023-08-08T11:47:30;26.30;7.50
418;DHT22;49;48.530;9.200;2023-08-08T11:50:01;26.50;10.10
418;DHT22;49;48.530;9.200;2023-08-08T11:52:29;26.80;8.00
418;DHT22;49;48.530;9.200;2023-08-08T11:54:58;27.10;7.90
418;DHT22;49;48.530;9.200;2023-08-08T11:57:28;27.70;6.60
418;DHT22;49;48.530;9.200;2023-08-08T11:59:55;27.80;7.60
418;DHT22;49;48.530;9.200;2023-08-08T12:02:23;27.90;6.90
418;DHT22;49;48.530;9.200;2023-08-08T12:04:50;27.60;6.80
418;DHT22;49;48.530;9.200;2023-08-08T12:07:17;28.00;6.80
418;DHT22;49;48.530;9.200;2023-08-08T12:09:46;27.70;6.00
418;DHT22;49;48.530;9.200;2023-08-08T12:12:13;27.30;7.90
418;DHT22;49;48.530;9.200;2023-08-08T12:14:43;27.60;6.70
418;DHT22;49;48.530;9.200;2023-08-08T12:17:10;26.80;7.80
418;DHT22;49;48.530;9.200;2023-08-08T12:19:45;26.10;8.60
418;DHT22;49;48.530;9.200;2023-08-08T12:22:12;26.70;8.00
418;DHT22;49;48.530;9.200;2023-08-08T12:24:40;27.60;7.60
418;DHT22;49;48.530;9.200;2023-08-08T12:27:07;28.00;6.90
418;DHT22;49;48.530;9.200;2023-08-08T12:29:34;28.30;6.60
418;DHT22;49;48.530;9.200;2023-08-08T12:32:02;28.90;5.20
418;DHT22;49;48.530;9.200;2023-08-08T12:34:33;27.70;5.30
418;DHT22;49;48.530;9.200;2023-08-08T12:37:00;26.70;6.10
418;DHT22;49;48.530;9.200;2023-08-08T12:39:27;27.30;7.10
418;DHT22;49;48.530;9.200;2023-08-08T12:41:53;28.50;5.70
418;DHT22;49;48.530;9.200;2023-08-08T12:44:20;28.80;4.60
418;DHT22;49;48.530;9.200;2023-08-08T12:46:47;29.10;4.80
418;DHT22;49;48.530;9.200;2023-08-08T12:49:16;28.00;5.10
418;DHT22;49;48.530;9.200;2023-08-08T12:51:43;27.10;5.90
418;DHT22;49;48.530;9.200;2023-08-08T12:54:10;27.40;6.60
418;DHT22;49;48.530;9.200;2023-08-08T12:56:36;27.90;4.70
418;DHT22;49;48.530;9.200;2023-08-08T12:59:04;27.30;3.80
418;DHT22;49;48.530;9.200;2023-08-08T13:01:31;27.20;7.50
418;DHT22;49;48.530;9.200;2023-08-08T13:03:58;27.90;6.40
418;DHT22;49;48.530;9.200;2023-08-08T13:06:26;27.70;5.40
418;DHT22;49;48.530;9.200;2023-08-08T13:08:53;28.10;4.30
418;DHT22;49;48.530;9.200;2023-08-08T13:11:20;27.60;4.90
418;DHT22;49;48.530;9.200;2023-08-08T13:13:47;27.70;5.60
418;DHT22;49;48.530;9.200;2023-08-08T13:16:14;27.70;5.00
418;DHT22;49;48.530;9.200;2023-08-08T13:18:41;28.10;4.80
418;DHT22;49;48.530;9.200;2023-08-08T13:21:09;28.50;5.60
418;DHT22;49;48.530;9.200;2023-08-08T13:23:40;28.50;4.60
418;DHT22;49;48.530;9.200;2023-08-08T13:26:07;27.30;5.90
418;DHT22;49;48.530;9.200;2023-08-08T13:28:35;27.10;8.00
418;DHT22;49;48.530;9.200;2023-08-08T13:31:04;27.70;8.30
418;DHT22;49;48.530;9.200;2023-08-08T13:33:32;27.60;7.30
418;DHT22;49;48.530;9.200;2023-08-08T13:36:00;27.90;5.10
418;DHT22;49;48.530;9.200;2023-08-08T13:38:29;28.20;4.30
418;DHT22;49;48.530;9.200;2023-08-08T13:40:59;28.50;4.50
418;DHT22;49;48.530;9.200;2023-08-08T13:43:26;28.90;5.30
418;DHT22;49;48.530;9.200;2023-08-08T13:45:57;28.70;4.60
418;DHT22;49;48.530;9.200;2023-08-08T13:48:25;28.50;4.50
418;DHT22;49;48.530;9.200;2023-08-08T13:50:53;28.80;6.70
418;DHT22;49;48.530;9.200;2023-08-08T13:53:19;27.20;5.20
418;DHT22;49;48.530;9.200;2023-08-08T13:55:47;26.80;7.10
418;DHT22;49;48.530;9.200;2023-08-08T13:58:15;27.80;6.30
418;DHT22;49;48.530;9.200;2023-08-08T14:00:42;27.50;6.50
418;DHT22;49;48.530;9.200;2023-08-08T14:03:09;28.00;7.00
418;DHT22;49;48.530;9.200;2023-08-08T14:05:36;27.90;5.90
418;DHT22;49;48.530;9.200;2023-08-08T14:08:03;27.90;5.50
418;DHT22;49;48.530;9.200;2023-08-08T14:10:31;27.40;6.40
418;DHT22;49;48.530;9.200;2023-08-08T14:12:58;27.30;7.40
418;DHT22;49;48.530;9.200;2023-08-08T14:15:26;27.60;8.50
418;DHT22;49;48.530;9.200;2023-08-08T14:17:54;27.30;6.70
418;DHT22;49;48.530;9.200;2023-08-08T14:20:21;27.30;7.30
418;DHT22;49;48.530;9.200;2023-08-08T14:22:48;27.10;7.60
418;DHT22;49;48.530;9.200;2023-08-08T14:25:15;27.20;7.90
418;DHT22;49;48.530;9.200;2023-08-08T14:27:42;27.30;7.20
418;DHT22;49;48.530;9.200;2023-08-08T14:30:09;27.30;7.20
418;DHT22;49;48.530;9.200;2023-08-08T14:32:39;27.10;7.80
418;DHT22;49;48.530;9.200;2023-08-08T14:35:06;27.10;7.70
418;DHT22;49;48.530;9.200;2023-08-08T14:37:34;27.40;7.80
418;DHT22;49;48.530;9.200;2023-08-08T14:40:01;28.00;7.80
418;DHT22;49;48.530;9.200;2023-08-08T14:42:30;27.80;7.30
418;DHT22;49;48.530;9.200;2023-08-08T14:44:58;27.10;8.00
418;DHT22;49;48.530;9.200;2023-08-08T14:47:25;26.60;8.60
418;DHT22;49;48.530;9.200;2023-08-08T14:49:53;26.30;9.40
418;DHT22;49;48.530;9.200;2023-08-08T14:52:21;26.30;9.40
418;DHT22;49;48.530;9.200;2023-08-08T14:54:48;26.40;9.00
418;DHT22;49;48.530;9.200;2023-08-08T14:57:15;26.90;8.50
418;DHT22;49;48.530;9.200;2023-08-08T14:59:43;27.20;8.70
418;DHT22;49;48.530;9.200;2023-08-08T15:02:10;27.80;7.50
418;DHT22;49;48.530;9.200;2023-08-08T15:04:40;27.90;7.40
418;DHT22;49;48.530;9.200;2023-08-08T15:07:09;28.00;8.70
418;DHT22;49;48.530;9.200;2023-08-08T15:09:36;28.20;7.80
418;DHT22;49;48.530;9.200;2023-08-08T15:12:04;28.20;6.90
418;DHT22;49;48.530;9.200;2023-08-08T15:14:31;28.20;8.30
418;DHT22;49;48.530;9.200;2023-08-08T15:16:59;28.60;6.80
418;DHT22;49;48.530;9.200;2023-08-08T15:19:26;28.70;6.60
418;DHT22;49;48.530;9.200;2023-08-08T15:21:54;28.30;6.80
418;DHT22;49;48.530;9.200;2023-08-08T15:24:23;27.50;8.50
418;DHT22;49;48.530;9.200;2023-08-08T15:26:50;26.90;9.00
418;DHT22;49;48.530;9.200;2023-08-08T15:29:17;26.40;9.30
418;DHT22;49;48.530;9.200;2023-08-08T15:31:44;26.70;9.60
418;DHT22;49;48.530;9.200;2023-08-08T15:34:10;26.70;9.60
418;DHT22;49;48.530;9.200;2023-08-08T15:36:37;26.90;8.80
418;DHT22;49;48.530;9.200;2023-08-08T15:39:05;26.20;9.70
418;DHT22;49;48.530;9.200;2023-08-08T15:41:33;25.40;11.10
418;DHT22;49;48.530;9.200;2023-08-08T15:44:01;25.70;10.90
418;DHT22;49;48.530;9.200;2023-08-08T15:46:28;26.00;10.20
418;DHT22;49;48.530;9.200;2023-08-08T15:48:55;26.00;10.70
418;DHT22;49;48.530;9.200;2023-08-08T15:51:22;26.00;12.90
418;DHT22;49;48.530;9.200;2023-08-08T15:53:49;26.30;10.40
418;DHT22;49;48.530;9.200;2023-08-08T15:56:16;26.50;9.90
418;DHT22;49;48.530;9.200;2023-08-08T15:58:45;26.40;9.90
418;DHT22;49;48.530;9.200;2023-08-08T16:01:14;26.50;9.90
418;DHT22;49;48.530;9.200;2023-08-08T16:03:41;26.30;10.10
418;DHT22;49;48.530;9.200;2023-08-08T16:06:08;26.00;11.00
418;DHT22;49;48.530;9.200;2023-08-08T16:08:35;26.10;11.40
418;DHT22;49;48.530;9.200;2023-08-08T16:11:02;26.20;11.40
418;DHT22;49;48.530;9.200;2023-08-08T16:13:29;26.40;10.80
418;DHT22;49;48.530;9.200;2023-08-08T16:15:58;26.20;11.60
418;DHT22;49;48.530;9.200;2023-08-08T16:18:27;26.50;11.30
418;DHT22;49;48.530;9.200;2023-08-08T16:20:54;26.30;12.10
418;DHT22;49;48.530;9.200;2023-08-08T16:23:21;26.60;11.20
418;DHT22;49;48.530;9.200;2023-08-08T16:25:48;26.90;10.60
418;DHT22;49;48.530;9.200;2023-08-08T16:28:15;26.70;10.60
418;DHT22;49;48.530;9.200;2023-08-08T16:30:42;26.30;11.90
418;DHT22;49;48.530;9.200;2023-08-08T16:33:11;26.30;11.70
418;DHT22;49;48.530;9.200;2023-08-08T16:35:41;26.30;11.20
418;DHT22;49;48.530;9.200;2023-08-08T16:38:08;26.30;11.20
418;DHT22;49;48.530;9.200;2023-08-08T16:40:36;26.20;11.80
418;DHT22;49;48.530;9.200;2023-08-08T16:43:03;26.10;11.50
418;DHT22;49;48.530;9.200;2023-08-08T16:45:30;25.80;11.30
418;DHT22;49;48.530;9.200;2023-08-08T16:47:57;25.20;12.50
418;DHT22;49;48.530;9.200;2023-08-08T16:50:26;25.50;12.50
418;DHT22;49;48.530;9.200;2023-08-08T16:52:53;25.70;12.50
418;DHT22;49;48.530;9.200;2023-08-08T16:55:20;25.60;12.50
418;DHT22;49;48.530;9.200;2023-08-08T16:57:47;25.40;13.40
418;DHT22;49;48.530;9.200;2023-08-08T17:00:16;25.30;12.50
418;DHT22;49;48.530;9.200;2023-08-08T17:02:43;25.40;12.50
418;DHT22;49;48.530;9.200;2023-08-08T17:05:10;25.70;12.00
418;DHT22;49;48.530;9.200;2023-08-08T17:07:40;25.60;12.00
418;DHT22;49;48.530;9.200;2023-08-08T17:10:08;25.60;12.50
418;DHT22;49;48.530;9.200;2023-08-08T17:12:36;25.90;12.20
418;DHT22;49;48.530;9.200;2023-08-08T17:15:05;25.80;12.40
418;DHT22;49;48.530;9.200;2023-08-08T17:17:32;25.90;12.60